sensor_id;sensor_type;location;lat;lon;timestamp;P1;durP1;ratioP1;P2;durP2;ratioP2
5813;SDS011;2933;52.302;8.134;2022-07-23T00:01:34;4.30;;;3.60;;
5813;SDS011;2933;52.302;8.134;2022-07-23T00:06:36;3.63;;;3.33;;
5813;SDS011;2933;52.302;8.134;2022-07-23T00:11:39;5.27;;;4.17;;
5813;SDS011;2933;52.302;8.134;2022-07-23T00:16:40;3.40;;;3.20;;
5813;SDS011;2933;52.302;8.134;2022-07-23T00:21:42;3.77;;;3.43;;
5813;SDS011;2933;52.302;8.134;2022-07-23T00:26:44;4.03;;;3.67;;
5813;SDS011;2933;52.302;8.134;2022-07-23T00:31:46;3.23;;;2.93;;
5813;SDS011;2933;52.302;8.134;2022-07-23T00:36:47;3.80;;;3.10;;
5813;SDS011;2933;52.302;8.134;2022-07-23T00:41:50;6.80;;;3.70;;
5813;SDS011;2933;52.302;8.134;2022-07-23T00:46:53;3.90;;;3.70;;
5813;SDS011;2933;52.302;8.134;2022-07-23T00:51:55;4.00;;;3.70;;
5813;SDS011;2933;52.302;8.134;2022-07-23T00:56:59;6.07;;;3.60;;
5813;SDS011;2933;52.302;8.134;2022-07-23T01:02:00;7.17;;;3.83;;
5813;SDS011;2933;52.302;8.134;2022-07-23T01:07:02;6.50;;;3.50;;
5813;SDS011;2933;52.302;8.134;2022-07-23T01:12:05;4.33;;;3.77;;
5813;SDS011;2933;52.302;8.134;2022-07-23T01:17:07;6.00;;;4.10;;
5813;SDS011;2933;52.302;8.134;2022-07-23T01:22:09;6.30;;;4.00;;
5813;SDS011;2933;52.302;8.134;2022-07-23T01:27:12;4.47;;;4.17;;
5813;SDS011;2933;52.302;8.134;2022-07-23T01:32:14;5.50;;;4.57;;
5813;SDS011;2933;52.302;8.134;2022-07-23T01:37:16;4.77;;;4.40;;
5813;SDS011;2933;52.302;8.134;2022-07-23T01:42:19;13.37;;;5.57;;
5813;SDS011;2933;52.302;8.134;2022-07-23T01:47:20;8.73;;;4.83;;
5813;SDS011;2933;52.302;8.134;2022-07-23T01:52:22;6.63;;;5.00;;
5813;SDS011;2933;52.302;8.134;2022-07-23T01:57:25;5.20;;;4.37;;
5813;SDS011;2933;52.302;8.134;2022-07-23T02:02:27;5.03;;;4.20;;
5813;SDS011;2933;52.302;8.134;2022-07-23T02:07:28;9.03;;;4.13;;
5813;SDS011;2933;52.302;8.134;2022-07-23T02:12:31;6.93;;;4.50;;
5813;SDS011;2933;52.302;8.134;2022-07-23T02:17:33;4.80;;;3.97;;
5813;SDS011;2933;52.302;8.134;2022-07-23T02:22:34;6.73;;;4.30;;
5813;SDS011;2933;52.302;8.134;2022-07-23T02:27:37;5.77;;;4.10;;
5813;SDS011;2933;52.302;8.134;2022-07-23T02:32:39;5.43;;;4.70;;
5813;SDS011;2933;52.302;8.134;2022-07-23T02:37:41;13.87;;;4.40;;
5813;SDS011;2933;52.302;8.134;2022-07-23T02:42:43;4.60;;;4.20;;
5813;SDS011;2933;52.302;8.134;2022-07-23T02:47:46;6.60;;;4.40;;
5813;SDS011;2933;52.302;8.134;2022-07-23T02:52:47;5.33;;;4.70;;
5813;SDS011;2933;52.302;8.134;2022-07-23T02:57:50;4.60;;;4.20;;
5813;SDS011;2933;52.302;8.134;2022-07-23T03:02:52;5.47;;;4.00;;
5813;SDS011;2933;52.302;8.134;2022-07-23T03:07:53;5.67;;;4.53;;
5813;SDS011;2933;52.302;8.134;2022-07-23T03:12:56;7.53;;;4.83;;
5813;SDS011;2933;52.302;8.134;2022-07-23T03:17:58;6.20;;;4.63;;
5813;SDS011;2933;52.302;8.134;2022-07-23T03:22:59;4.90;;;4.50;;
5813;SDS011;2933;52.302;8.134;2022-07-23T03:28:02;7.93;;;4.67;;
5813;SDS011;2933;52.302;8.134;2022-07-23T03:33:04;6.63;;;5.00;;
5813;SDS011;2933;52.302;8.134;2022-07-23T03:38:06;11.43;;;6.17;;
5813;SDS011;2933;52.302;8.134;2022-07-23T03:43:08;7.10;;;5.37;;
5813;SDS011;2933;52.302;8.134;2022-07-23T03:48:10;5.50;;;5.10;;
5813;SDS011;2933;52.302;8.134;2022-07-23T03:53:12;6.37;;;5.40;;
5813;SDS011;2933;52.302;8.134;2022-07-23T03:58:15;5.57;;;5.07;;
5813;SDS011;2933;52.302;8.134;2022-07-23T04:03:16;7.50;;;4.83;;
5813;SDS011;2933;52.302;8.134;2022-07-23T04:08:18;7.17;;;5.00;;
5813;SDS011;2933;52.302;8.134;2022-07-23T04:13:21;6.87;;;4.97;;
5813;SDS011;2933;52.302;8.134;2022-07-23T04:18:22;9.23;;;5.10;;
5813;SDS011;2933;52.302;8.134;2022-07-23T04:23:24;5.30;;;4.60;;
5813;SDS011;2933;52.302;8.134;2022-07-23T04:28:27;5.13;;;4.73;;
5813;SDS011;2933;52.302;8.134;2022-07-23T04:33:28;5.60;;;5.10;;
5813;SDS011;2933;52.302;8.134;2022-07-23T04:38:30;4.93;;;4.43;;
5813;SDS011;2933;52.302;8.134;2022-07-23T04:43:34;5.47;;;4.97;;
5813;SDS011;2933;52.302;8.134;2022-07-23T04:48:35;6.13;;;5.50;;
5813;SDS011;2933;52.302;8.134;2022-07-23T04:53:37;6.83;;;5.20;;
5813;SDS011;2933;52.302;8.134;2022-07-23T04:58:40;6.40;;;4.30;;
5813;SDS011;2933;52.302;8.134;2022-07-23T05:03:41;10.37;;;5.40;;
5813;SDS011;2933;52.302;8.134;2022-07-23T05:08:43;9.03;;;5.10;;
5813;SDS011;2933;52.302;8.134;2022-07-23T05:13:46;22.20;;;6.00;;
5813;SDS011;2933;52.302;8.134;2022-07-23T05:18:47;6.97;;;5.60;;
5813;SDS011;2933;52.302;8.134;2022-07-23T05:23:49;7.00;;;6.40;;
5813;SDS011;2933;52.302;8.134;2022-07-23T05:28:52;14.33;;;6.23;;
5813;SDS011;2933;52.302;8.134;2022-07-23T05:33:53;7.83;;;6.63;;
5813;SDS011;2933;52.302;8.134;2022-07-23T05:38:55;10.70;;;7.10;;
5813;SDS011;2933;52.302;8.134;2022-07-23T05:43:57;12.37;;;8.03;;
5813;SDS011;2933;52.302;8.134;2022-07-23T05:48:59;17.03;;;8.97;;
5813;SDS011;2933;52.302;8.134;2022-07-23T05:54:00;12.53;;;8.10;;
5813;SDS011;2933;52.302;8.134;2022-07-23T05:59:03;18.07;;;8.33;;
5813;SDS011;2933;52.302;8.134;2022-07-23T06:04:06;11.27;;;7.30;;
5813;SDS011;2933;52.302;8.134;2022-07-23T06:09:07;15.43;;;7.77;;
5813;SDS011;2933;52.302;8.134;2022-07-23T06:14:12;10.23;;;7.10;;
5813;SDS011;2933;52.302;8.134;2022-07-23T06:19:13;9.27;;;6.10;;
5813;SDS011;2933;52.302;8.134;2022-07-23T06:24:15;7.80;;;5.70;;
5813;SDS011;2933;52.302;8.134;2022-07-23T06:29:18;6.50;;;5.40;;
5813;SDS011;2933;52.302;8.134;2022-07-23T06:34:19;8.03;;;5.57;;
5813;SDS011;2933;52.302;8.134;2022-07-23T06:39:21;9.10;;;7.50;;
5813;SDS011;2933;52.302;8.134;2022-07-23T06:44:24;13.63;;;7.33;;
5813;SDS011;2933;52.302;8.134;2022-07-23T06:49:25;12.50;;;8.37;;
5813;SDS011;2933;52.302;8.134;2022-07-23T06:54:26;9.13;;;7.30;;
5813;SDS011;2933;52.302;8.134;2022-07-23T06:59:29;9.47;;;5.67;;
5813;SDS011;2933;52.302;8.134;2022-07-23T07:04:31;5.83;;;5.33;;
5813;SDS011;2933;52.302;8.134;2022-07-23T07:09:33;5.77;;;4.90;;
5813;SDS011;2933;52.302;8.134;2022-07-23T07:14:35;5.13;;;4.43;;
5813;SDS011;2933;52.302;8.134;2022-07-23T07:19:37;5.60;;;4.10;;
5813;SDS011;2933;52.302;8.134;2022-07-23T07:24:38;5.43;;;3.80;;
5813;SDS011;2933;52.302;8.134;2022-07-23T07:29:41;3.43;;;3.23;;
5813;SDS011;2933;52.302;8.134;2022-07-23T07:34:43;6.17;;;3.37;;
5813;SDS011;2933;52.302;8.134;2022-07-23T07:39:44;5.33;;;3.40;;
5813;SDS011;2933;52.302;8.134;2022-07-23T07:44:47;9.60;;;3.77;;
5813;SDS011;2933;52.302;8.134;2022-07-23T07:49:49;3.80;;;3.40;;
5813;SDS011;2933;52.302;8.134;2022-07-23T07:54:50;7.50;;;3.30;;
5813;SDS011;2933;52.302;8.134;2022-07-23T07:59:53;3.40;;;3.10;;
5813;SDS011;2933;52.302;8.134;2022-07-23T08:04:55;3.63;;;3.33;;
5813;SDS011;2933;52.302;8.134;2022-07-23T08:09:57;3.00;;;2.83;;
5813;SDS011;2933;52.302;8.134;2022-07-23T08:15:00;9.23;;;3.37;;
5813;SDS011;2933;52.302;8.134;2022-07-23T08:20:01;1.97;;;1.87;;
5813;SDS011;2933;52.302;8.134;2022-07-23T08:25:04;2.50;;;2.40;;
5813;SDS011;2933;52.302;8.134;2022-07-23T08:30:08;5.43;;;2.37;;
5813;SDS011;2933;52.302;8.134;2022-07-23T08:35:10;4.53;;;2.70;;
5813;SDS011;2933;52.302;8.134;2022-07-23T08:40:12;2.67;;;1.77;;
5813;SDS011;2933;52.302;8.134;2022-07-23T08:45:15;3.13;;;1.77;;
5813;SDS011;2933;52.302;8.134;2022-07-23T08:50:19;3.17;;;1.80;;
5813;SDS011;2933;52.302;8.134;2022-07-23T08:55:21;3.63;;;1.50;;
5813;SDS011;2933;52.302;8.134;2022-07-23T09:00:25;1.70;;;1.50;;
5813;SDS011;2933;52.302;8.134;2022-07-23T09:05:26;2.47;;;1.53;;
5813;SDS011;2933;52.302;8.134;2022-07-23T09:10:28;1.60;;;1.50;;
5813;SDS011;2933;52.302;8.134;2022-07-23T09:15:31;3.47;;;1.97;;
5813;SDS011;2933;52.302;8.134;2022-07-23T09:20:32;1.60;;;1.10;;
5813;SDS011;2933;52.302;8.134;2022-07-23T09:25:34;1.93;;;1.20;;
5813;SDS011;2933;52.302;8.134;2022-07-23T09:30:37;2.60;;;1.50;;
5813;SDS011;2933;52.302;8.134;2022-07-23T09:35:49;5.07;;;1.60;;
5813;SDS011;2933;52.302;8.134;2022-07-23T09:41:05;1.93;;;1.77;;
5813;SDS011;2933;52.302;8.134;2022-07-23T09:46:19;2.00;;;1.70;;
5813;SDS011;2933;52.302;8.134;2022-07-23T09:51:23;1.50;;;1.40;;
5813;SDS011;2933;52.302;8.134;2022-07-23T09:56:28;1.97;;;1.60;;
5813;SDS011;2933;52.302;8.134;2022-07-23T10:01:31;1.10;;;1.10;;
5813;SDS011;2933;52.302;8.134;2022-07-23T10:06:34;0.90;;;0.90;;
5813;SDS011;2933;52.302;8.134;2022-07-23T10:11:36;1.20;;;1.10;;
5813;SDS011;2933;52.302;8.134;2022-07-23T10:16:39;1.53;;;1.20;;
5813;SDS011;2933;52.302;8.134;2022-07-23T10:21:42;2.30;;;1.30;;
5813;SDS011;2933;52.302;8.134;2022-07-23T10:26:50;1.57;;;1.30;;
5813;SDS011;2933;52.302;8.134;2022-07-23T10:32:00;1.57;;;1.40;;
5813;SDS011;2933;52.302;8.134;2022-07-23T10:37:12;4.43;;;1.07;;
5813;SDS011;2933;52.302;8.134;2022-07-23T10:42:19;1.37;;;1.27;;
5813;SDS011;2933;52.302;8.134;2022-07-23T10:47:25;1.30;;;1.20;;
5813;SDS011;2933;52.302;8.134;2022-07-23T10:52:39;1.27;;;1.17;;
5813;SDS011;2933;52.302;8.134;2022-07-23T10:57:47;1.10;;;1.00;;
5813;SDS011;2933;52.302;8.134;2022-07-23T11:02:51;1.50;;;1.40;;
5813;SDS011;2933;52.302;8.134;2022-07-23T11:13:26;1.10;;;1.00;;
5813;SDS011;2933;52.302;8.134;2022-07-23T11:24:14;5.43;;;1.30;;
5813;SDS011;2933;52.302;8.134;2022-07-23T11:34:42;5.13;;;1.23;;
5813;SDS011;2933;52.302;8.134;2022-07-23T11:39:47;1.27;;;0.97;;
5813;SDS011;2933;52.302;8.134;2022-07-23T11:44:49;1.33;;;0.90;;
5813;SDS011;2933;52.302;8.134;2022-07-23T11:49:52;0.80;;;0.80;;
5813;SDS011;2933;52.302;8.134;2022-07-23T11:54:56;2.27;;;1.00;;
5813;SDS011;2933;52.302;8.134;2022-07-23T12:00:06;1.27;;;1.13;;
5813;SDS011;2933;52.302;8.134;2022-07-23T12:05:11;0.93;;;0.90;;
5813;SDS011;2933;52.302;8.134;2022-07-23T12:10:16;2.40;;;1.00;;
5813;SDS011;2933;52.302;8.134;2022-07-23T12:15:20;1.03;;;1.03;;
5813;SDS011;2933;52.302;8.134;2022-07-23T12:20:23;1.37;;;1.27;;
5813;SDS011;2933;52.302;8.134;2022-07-23T12:25:28;0.83;;;0.83;;
5813;SDS011;2933;52.302;8.134;2022-07-23T12:30:32;2.10;;;0.80;;
5813;SDS011;2933;52.302;8.134;2022-07-23T12:35:36;1.33;;;0.80;;
5813;SDS011;2933;52.302;8.134;2022-07-23T12:40:43;4.53;;;1.23;;
5813;SDS011;2933;52.302;8.134;2022-07-23T12:45:47;0.90;;;0.90;;
5813;SDS011;2933;52.302;8.134;2022-07-23T12:50:52;2.23;;;0.90;;
5813;SDS011;2933;52.302;8.134;2022-07-23T12:56:00;1.43;;;0.80;;
5813;SDS011;2933;52.302;8.134;2022-07-23T13:01:06;1.77;;;0.90;;
5813;SDS011;2933;52.302;8.134;2022-07-23T13:06:08;1.77;;;1.33;;
5813;SDS011;2933;52.302;8.134;2022-07-23T13:11:12;1.53;;;0.90;;
5813;SDS011;2933;52.302;8.134;2022-07-23T13:16:14;2.13;;;0.87;;
5813;SDS011;2933;52.302;8.134;2022-07-23T13:21:15;2.27;;;1.00;;
5813;SDS011;2933;52.302;8.134;2022-07-23T13:26:18;1.10;;;1.00;;
5813;SDS011;2933;52.302;8.134;2022-07-23T13:31:19;1.73;;;1.00;;
5813;SDS011;2933;52.302;8.134;2022-07-23T13:36:21;0.80;;;0.80;;
5813;SDS011;2933;52.302;8.134;2022-07-23T13:41:24;3.43;;;0.97;;
5813;SDS011;2933;52.302;8.134;2022-07-23T13:46:25;3.57;;;1.40;;
5813;SDS011;2933;52.302;8.134;2022-07-23T13:51:27;1.00;;;1.00;;
5813;SDS011;2933;52.302;8.134;2022-07-23T13:56:30;2.20;;;1.07;;
5813;SDS011;2933;52.302;8.134;2022-07-23T14:01:31;4.10;;;1.20;;
5813;SDS011;2933;52.302;8.134;2022-07-23T14:06:33;1.60;;;0.90;;
5813;SDS011;2933;52.302;8.134;2022-07-23T14:11:36;1.07;;;1.00;;
5813;SDS011;2933;52.302;8.134;2022-07-23T14:16:38;0.80;;;0.80;;
5813;SDS011;2933;52.302;8.134;2022-07-23T14:21:40;0.80;;;0.80;;
5813;SDS011;2933;52.302;8.134;2022-07-23T14:26:43;1.27;;;1.13;;
5813;SDS011;2933;52.302;8.134;2022-07-23T14:31:44;1.13;;;1.03;;
5813;SDS011;2933;52.302;8.134;2022-07-23T14:36:46;2.20;;;1.20;;
5813;SDS011;2933;52.302;8.134;2022-07-23T14:41:49;0.87;;;0.87;;
5813;SDS011;2933;52.302;8.134;2022-07-23T14:46:50;2.30;;;1.00;;
5813;SDS011;2933;52.302;8.134;2022-07-23T14:51:52;0.80;;;0.80;;
5813;SDS011;2933;52.302;8.134;2022-07-23T14:56:55;1.33;;;1.23;;
5813;SDS011;2933;52.302;8.134;2022-07-23T15:01:57;1.30;;;1.03;;
5813;SDS011;2933;52.302;8.134;2022-07-23T15:06:59;1.20;;;1.10;;
5813;SDS011;2933;52.302;8.134;2022-07-23T15:12:02;1.23;;;1.13;;
5813;SDS011;2933;52.302;8.134;2022-07-23T15:17:05;1.13;;;1.03;;
5813;SDS011;2933;52.302;8.134;2022-07-23T15:22:06;1.53;;;1.13;;
5813;SDS011;2933;52.302;8.134;2022-07-23T15:27:09;1.10;;;1.10;;
5813;SDS011;2933;52.302;8.134;2022-07-23T15:32:11;1.57;;;0.80;;
5813;SDS011;2933;52.302;8.134;2022-07-23T15:37:12;1.00;;;1.00;;
5813;SDS011;2933;52.302;8.134;2022-07-23T15:42:15;1.00;;;0.90;;
5813;SDS011;2933;52.302;8.134;2022-07-23T15:47:17;1.00;;;1.00;;
5813;SDS011;2933;52.302;8.134;2022-07-23T15:52:20;1.10;;;1.00;;
5813;SDS011;2933;52.302;8.134;2022-07-23T15:57:23;3.23;;;1.40;;
5813;SDS011;2933;52.302;8.134;2022-07-23T16:02:25;1.30;;;0.80;;
5813;SDS011;2933;52.302;8.134;2022-07-23T16:07:27;1.00;;;0.90;;
5813;SDS011;2933;52.302;8.134;2022-07-23T16:12:29;1.20;;;1.10;;
5813;SDS011;2933;52.302;8.134;2022-07-23T16:17:31;2.50;;;1.00;;
5813;SDS011;2933;52.302;8.134;2022-07-23T16:22:33;2.53;;;1.10;;
5813;SDS011;2933;52.302;8.134;2022-07-23T16:27:37;0.90;;;0.90;;
5813;SDS011;2933;52.302;8.134;2022-07-23T16:32:40;0.80;;;0.80;;
5813;SDS011;2933;52.302;8.134;2022-07-23T16:37:42;0.63;;;0.63;;
5813;SDS011;2933;52.302;8.134;2022-07-23T16:42:45;1.07;;;1.07;;
5813;SDS011;2933;52.302;8.134;2022-07-23T16:47:46;1.17;;;0.83;;
5813;SDS011;2933;52.302;8.134;2022-07-23T16:52:49;4.20;;;1.10;;
5813;SDS011;2933;52.302;8.134;2022-07-23T16:57:51;0.80;;;0.80;;
5813;SDS011;2933;52.302;8.134;2022-07-23T17:02:53;0.90;;;0.90;;
5813;SDS011;2933;52.302;8.134;2022-07-23T17:07:55;2.57;;;0.80;;
5813;SDS011;2933;52.302;8.134;2022-07-23T17:12:58;2.10;;;0.83;;
5813;SDS011;2933;52.302;8.134;2022-07-23T17:17:59;1.10;;;0.90;;
5813;SDS011;2933;52.302;8.134;2022-07-23T17:23:01;1.30;;;1.03;;
5813;SDS011;2933;52.302;8.134;2022-07-23T17:28:04;1.00;;;1.00;;
5813;SDS011;2933;52.302;8.134;2022-07-23T17:33:05;1.17;;;1.10;;
5813;SDS011;2933;52.302;8.134;2022-07-23T17:38:07;1.70;;;1.20;;
5813;SDS011;2933;52.302;8.134;2022-07-23T17:43:10;2.50;;;1.07;;
5813;SDS011;2933;52.302;8.134;2022-07-23T17:48:11;4.40;;;1.00;;
5813;SDS011;2933;52.302;8.134;2022-07-23T17:53:13;1.13;;;0.83;;
5813;SDS011;2933;52.302;8.134;2022-07-23T17:58:17;1.00;;;1.00;;
5813;SDS011;2933;52.302;8.134;2022-07-23T18:03:19;2.00;;;1.00;;
5813;SDS011;2933;52.302;8.134;2022-07-23T18:08:20;1.70;;;1.10;;
5813;SDS011;2933;52.302;8.134;2022-07-23T18:13:23;1.20;;;1.10;;
5813;SDS011;2933;52.302;8.134;2022-07-23T18:18:25;1.37;;;1.37;;
5813;SDS011;2933;52.302;8.134;2022-07-23T18:23:28;1.23;;;1.13;;
5813;SDS011;2933;52.302;8.134;2022-07-23T18:28:30;1.40;;;1.17;;
5813;SDS011;2933;52.302;8.134;2022-07-23T18:33:33;1.40;;;1.30;;
5813;SDS011;2933;52.302;8.134;2022-07-23T18:38:34;2.40;;;1.10;;
5813;SDS011;2933;52.302;8.134;2022-07-23T18:43:37;1.87;;;1.20;;
5813;SDS011;2933;52.302;8.134;2022-07-23T18:48:39;2.10;;;1.40;;
5813;SDS011;2933;52.302;8.134;2022-07-23T18:53:41;1.57;;;1.00;;
5813;SDS011;2933;52.302;8.134;2022-07-23T18:58:44;1.00;;;1.00;;
5813;SDS011;2933;52.302;8.134;2022-07-23T19:03:45;1.43;;;1.33;;
5813;SDS011;2933;52.302;8.134;2022-07-23T19:08:47;1.10;;;1.00;;
5813;SDS011;2933;52.302;8.134;2022-07-23T19:13:50;1.27;;;1.17;;
5813;SDS011;2933;52.302;8.134;2022-07-23T19:18:51;1.83;;;1.10;;
5813;SDS011;2933;52.302;8.134;2022-07-23T19:23:53;2.60;;;1.00;;
5813;SDS011;2933;52.302;8.134;2022-07-23T19:28:56;1.53;;;1.43;;
5813;SDS011;2933;52.302;8.134;2022-07-23T19:33:58;2.40;;;1.07;;
5813;SDS011;2933;52.302;8.134;2022-07-23T19:38:59;1.10;;;1.10;;
5813;SDS011;2933;52.302;8.134;2022-07-23T19:44:02;4.13;;;1.00;;
5813;SDS011;2933;52.302;8.134;2022-07-23T19:49:04;1.40;;;1.10;;
5813;SDS011;2933;52.302;8.134;2022-07-23T19:54:06;0.90;;;0.90;;
5813;SDS011;2933;52.302;8.134;2022-07-23T19:59:09;1.77;;;1.40;;
5813;SDS011;2933;52.302;8.134;2022-07-23T20:04:11;3.57;;;1.50;;
5813;SDS011;2933;52.302;8.134;2022-07-23T20:09:13;1.53;;;1.10;;
5813;SDS011;2933;52.302;8.134;2022-07-23T20:14:16;1.93;;;1.20;;
5813;SDS011;2933;52.302;8.134;2022-07-23T20:19:17;1.37;;;1.27;;
5813;SDS011;2933;52.302;8.134;2022-07-23T20:24:19;5.70;;;1.20;;
5813;SDS011;2933;52.302;8.134;2022-07-23T20:29:22;2.00;;;1.50;;
5813;SDS011;2933;52.302;8.134;2022-07-23T20:34:24;1.17;;;1.13;;
5813;SDS011;2933;52.302;8.134;2022-07-23T20:39:25;2.27;;;1.30;;
5813;SDS011;2933;52.302;8.134;2022-07-23T20:44:28;1.07;;;1.07;;
5813;SDS011;2933;52.302;8.134;2022-07-23T20:49:30;1.43;;;1.33;;
5813;SDS011;2933;52.302;8.134;2022-07-23T20:54:32;1.60;;;1.50;;
5813;SDS011;2933;52.302;8.134;2022-07-23T20:59:34;1.13;;;1.13;;
5813;SDS011;2933;52.302;8.134;2022-07-23T21:04:37;1.13;;;1.10;;
5813;SDS011;2933;52.302;8.134;2022-07-23T21:09:38;2.93;;;1.50;;
5813;SDS011;2933;52.302;8.134;2022-07-23T21:14:41;1.37;;;1.27;;
5813;SDS011;2933;52.302;8.134;2022-07-23T21:19:43;1.50;;;1.40;;
5813;SDS011;2933;52.302;8.134;2022-07-23T21:24:45;1.60;;;1.50;;
5813;SDS011;2933;52.302;8.134;2022-07-23T21:29:48;2.93;;;1.40;;
5813;SDS011;2933;52.302;8.134;2022-07-23T21:34:50;1.60;;;1.50;;
5813;SDS011;2933;52.302;8.134;2022-07-23T21:39:51;1.57;;;1.37;;
5813;SDS011;2933;52.302;8.134;2022-07-23T21:44:54;1.63;;;1.53;;
5813;SDS011;2933;52.302;8.134;2022-07-23T21:49:56;1.60;;;1.50;;
5813;SDS011;2933;52.302;8.134;2022-07-23T21:54:58;1.50;;;1.40;;
5813;SDS011;2933;52.302;8.134;2022-07-23T22:00:03;1.83;;;1.73;;
5813;SDS011;2933;52.302;8.134;2022-07-23T22:05:08;3.07;;;1.70;;
5813;SDS011;2933;52.302;8.134;2022-07-23T22:10:09;1.63;;;1.53;;
5813;SDS011;2933;52.302;8.134;2022-07-23T22:15:14;1.40;;;1.40;;
5813;SDS011;2933;52.302;8.134;2022-07-23T22:20:16;2.40;;;1.50;;
5813;SDS011;2933;52.302;8.134;2022-07-23T22:25:19;2.23;;;1.63;;
5813;SDS011;2933;52.302;8.134;2022-07-23T22:30:22;1.83;;;1.73;;
5813;SDS011;2933;52.302;8.134;2022-07-23T22:35:24;2.13;;;1.87;;
5813;SDS011;2933;52.302;8.134;2022-07-23T22:40:26;1.50;;;1.50;;
5813;SDS011;2933;52.302;8.134;2022-07-23T22:45:29;4.17;;;1.80;;
5813;SDS011;2933;52.302;8.134;2022-07-23T22:50:30;3.50;;;1.90;;
5813;SDS011;2933;52.302;8.134;2022-07-23T22:55:32;1.70;;;1.60;;
5813;SDS011;2933;52.302;8.134;2022-07-23T23:00:35;3.93;;;1.70;;
5813;SDS011;2933;52.302;8.134;2022-07-23T23:05:36;1.67;;;1.57;;
5813;SDS011;2933;52.302;8.134;2022-07-23T23:10:38;2.10;;;2.00;;
5813;SDS011;2933;52.302;8.134;2022-07-23T23:15:41;2.17;;;2.07;;
5813;SDS011;2933;52.302;8.134;2022-07-23T23:20:43;2.07;;;1.97;;
5813;SDS011;2933;52.302;8.134;2022-07-23T23:25:44;2.70;;;2.20;;
5813;SDS011;2933;52.302;8.134;2022-07-23T23:30:48;2.27;;;2.17;;
5813;SDS011;2933;52.302;8.134;2022-07-23T23:35:50;2.30;;;2.20;;
5813;SDS011;2933;52.302;8.134;2022-07-23T23:40:52;2.00;;;1.90;;
5813;SDS011;2933;52.302;8.134;2022-07-23T23:45:55;2.07;;;1.97;;
5813;SDS011;2933;52.302;8.134;2022-07-23T23:50:57;2.00;;;1.90;;
5813;SDS011;2933;52.302;8.134;2022-07-23T23:55:59;2.30;;;2.20;;
